Time;durP1;ratioP1;P1;durP2;ratioP2;P2;SDS_P1;SDS_P2;PMS_P1;PMS_P2;Temp;Humidity;BMP_temperature;BMP_pressure;BME280_temperature;BME280_humidity;BME280_pressure;Samples;Min_cycle;Max_cycle;Signal;HPM_P1;HPM_P2
2021/07/09 00:01:37;;;;;;;2.75;2.00;;;17.90;84.60;;;;;;5085832;28;20031;-63
2021/07/09 00:04:03;;;;;;;2.38;2.17;;;17.90;84.80;;;;;;5081653;28;20028;-62
2021/07/09 00:06:29;;;;;;;2.60;2.00;;;17.90;84.90;;;;;;5088465;27;20043;-62
2021/07/09 00:08:55;;;;;;;2.53;2.33;;;17.80;85.00;;;;;;5084159;28;20032;-62
2021/07/09 00:11:20;;;;;;;2.38;1.77;;;17.80;85.20;;;;;;5083504;28;20032;-63
2021/07/09 00:13:46;;;;;;;2.10;2.00;;;17.70;85.30;;;;;;5082962;28;20066;-62
2021/07/09 00:16:14;;;;;;;2.20;2.00;;;17.80;85.40;;;;;;5085425;27;20063;-61
2021/07/09 00:18:39;;;;;;;2.33;2.13;;;17.70;85.30;;;;;;5082626;27;20032;-63
2021/07/09 00:21:05;;;;;;;2.30;2.10;;;17.70;85.30;;;;;;5083565;28;20036;-62
2021/07/09 00:23:31;;;;;;;3.53;1.92;;;17.70;85.30;;;;;;5096817;27;20028;-63
2021/07/09 00:25:57;;;;;;;2.30;1.80;;;17.70;85.40;;;;;;5084745;28;20072;-63
2021/07/09 00:28:22;;;;;;;2.75;1.83;;;17.70;85.50;;;;;;5085896;27;20555;-63
2021/07/09 00:30:48;;;;;;;2.20;1.70;;;17.60;85.60;;;;;;5082039;27;20039;-62
2021/07/09 00:33:14;;;;;;;1.80;1.67;;;17.60;85.50;;;;;;5081568;28;20036;-62
2021/07/09 00:35:39;;;;;;;1.95;1.67;;;17.60;85.50;;;;;;5081802;28;20119;-62
2021/07/09 00:38:05;;;;;;;1.52;1.42;;;17.60;85.60;;;;;;5086062;28;20059;-62
2021/07/09 00:40:31;;;;;;;2.90;1.38;;;17.60;85.60;;;;;;5085775;27;20036;-62
2021/07/09 00:42:56;;;;;;;1.40;1.40;;;17.60;85.50;;;;;;5084542;27;20504;-62
2021/07/09 00:45:22;;;;;;;1.23;1.13;;;17.60;85.50;;;;;;5084259;28;20044;-62
2021/07/09 00:47:48;;;;;;;1.15;1.00;;;17.50;85.30;;;;;;5081475;27;20534;-62
2021/07/09 00:50:16;;;;;;;1.60;1.17;;;17.50;85.40;;;;;;5082916;28;20036;-62
2021/07/09 00:52:43;;;;;;;1.55;0.95;;;17.50;85.20;;;;;;5083997;27;20047;-62
2021/07/09 00:55:10;;;;;;;0.88;0.88;;;17.40;85.20;;;;;;5089178;27;20050;-62
2021/07/09 00:57:41;;;;;;;1.15;1.00;;;17.40;85.20;;;;;;5082281;28;20588;-62
2021/07/09 01:00:09;;;;;;;0.85;0.85;;;17.40;85.20;;;;;;5083855;27;20032;-62
2021/07/09 01:02:36;;;;;;;0.95;0.77;;;17.40;85.20;;;;;;5077967;27;20032;-62
2021/07/09 01:05:07;;;;;;;0.80;0.80;;;17.30;85.20;;;;;;5084751;27;20047;-63
2021/07/09 01:07:33;;;;;;;1.00;0.70;;;17.30;85.10;;;;;;5083456;28;20092;-63
2021/07/09 01:09:58;;;;;;;2.92;1.00;;;17.30;85.10;;;;;;5084270;28;20035;-62
2021/07/09 01:12:25;;;;;;;1.15;1.02;;;17.30;85.20;;;;;;5081765;27;20032;-63
2021/07/09 01:14:50;;;;;;;0.77;0.77;;;17.20;85.00;;;;;;5084478;28;20028;-62
2021/07/09 01:17:16;;;;;;;1.13;0.93;;;17.20;85.00;;;;;;5080583;28;20042;-62
2021/07/09 01:19:42;;;;;;;0.80;0.80;;;17.10;85.00;;;;;;5082376;28;20047;-62
2021/07/09 01:22:08;;;;;;;1.20;1.10;;;17.10;85.10;;;;;;5083407;27;20043;-63
2021/07/09 01:24:36;;;;;;;1.10;1.10;;;17.10;85.20;;;;;;5083035;27;20028;-62
2021/07/09 01:27:02;;;;;;;1.35;1.10;;;17.10;85.30;;;;;;5082182;28;20043;-62
2021/07/09 01:29:27;;;;;;;1.30;1.20;;;17.10;85.30;;;;;;5083107;27;20043;-63
2021/07/09 01:31:54;;;;;;;1.08;1.05;;;17.00;85.40;;;;;;5086117;28;20028;-63
2021/07/09 01:34:20;;;;;;;2.45;1.27;;;17.00;85.50;;;;;;5080459;27;20032;-63
2021/07/09 01:36:45;;;;;;;1.30;1.20;;;17.00;85.40;;;;;;5084364;27;20043;-62
2021/07/09 01:39:11;;;;;;;1.40;1.30;;;17.00;85.50;;;;;;5081808;28;20036;-63
2021/07/09 01:41:37;;;;;;;2.92;1.42;;;16.90;85.40;;;;;;5084075;27;20483;-63
2021/07/09 01:44:03;;;;;;;1.50;1.40;;;16.90;85.40;;;;;;5080781;28;20039;-63
2021/07/09 01:46:30;;;;;;;1.40;1.30;;;16.90;85.50;;;;;;5083029;28;20040;-62
2021/07/09 01:48:55;;;;;;;1.45;1.35;;;16.90;85.60;;;;;;5082109;27;20089;-62
2021/07/09 01:51:21;;;;;;;1.40;1.30;;;16.90;85.70;;;;;;5083897;27;20025;-61
2021/07/09 01:53:47;;;;;;;1.50;1.40;;;16.80;85.70;;;;;;5082920;27;20499;-62
2021/07/09 01:56:12;;;;;;;1.55;1.40;;;16.80;85.70;;;;;;5083109;28;20687;-63
2021/07/09 01:58:39;;;;;;;3.40;1.30;;;16.80;85.90;;;;;;5077542;28;20036;-62
2021/07/09 02:01:06;;;;;;;1.25;1.20;;;16.80;86.00;;;;;;5084334;27;20101;-63
2021/07/09 02:03:33;;;;;;;1.67;1.58;;;16.80;86.00;;;;;;5081838;28;20032;-63
2021/07/09 02:05:58;;;;;;;1.90;1.45;;;16.80;86.00;;;;;;5082609;27;20091;-63
2021/07/09 02:08:24;;;;;;;1.67;1.40;;;16.80;85.90;;;;;;5081568;27;20574;-63
2021/07/09 02:10:50;;;;;;;1.55;1.30;;;16.80;86.00;;;;;;5085092;28;20036;-62
2021/07/09 02:13:16;;;;;;;1.50;1.40;;;16.80;86.00;;;;;;5085201;27;20074;-63
2021/07/09 02:15:44;;;;;;;1.80;1.70;;;16.70;86.00;;;;;;5088966;28;20032;-61
2021/07/09 02:18:11;;;;;;;2.00;1.30;;;16.70;86.10;;;;;;5083322;27;20033;-62
2021/07/09 02:20:38;;;;;;;2.78;1.50;;;16.70;86.20;;;;;;5083950;27;20082;-62
2021/07/09 02:23:06;;;;;;;1.75;1.58;;;16.70;86.20;;;;;;5084712;27;20082;-62
2021/07/09 02:25:32;;;;;;;2.05;1.27;;;16.70;86.30;;;;;;5087204;28;20032;-62
2021/07/09 02:27:58;;;;;;;1.48;1.38;;;16.70;86.20;;;;;;5090688;28;20487;-62
2021/07/09 02:30:26;;;;;;;2.05;1.40;;;16.70;86.20;;;;;;5086497;27;20093;-62
2021/07/09 02:32:52;;;;;;;2.42;1.30;;;16.70;86.30;;;;;;5088248;27;20048;-62
2021/07/09 02:35:20;;;;;;;2.80;1.42;;;16.70;86.20;;;;;;5084565;27;20040;-62
2021/07/09 02:37:47;;;;;;;4.72;1.40;;;16.70;86.20;;;;;;5086159;27;20036;-62
2021/07/09 02:40:16;;;;;;;2.55;1.25;;;16.70;86.30;;;;;;5080877;28;20032;-62
2021/07/09 02:42:47;;;;;;;2.58;1.30;;;16.70;86.30;;;;;;5083938;28;20028;-62
2021/07/09 02:45:14;;;;;;;1.10;1.00;;;16.70;86.50;;;;;;5087127;27;20093;-62
2021/07/09 02:47:41;;;;;;;1.17;1.13;;;16.70;86.30;;;;;;5083764;28;20985;-63
2021/07/09 02:50:12;;;;;;;1.20;1.10;;;16.70;86.40;;;;;;5086724;27;20043;-61
2021/07/09 02:52:38;;;;;;;2.28;1.02;;;16.70;86.60;;;;;;5087741;27;20561;-62
2021/07/09 02:55:05;;;;;;;0.90;0.80;;;16.70;86.40;;;;;;5084346;28;20028;-62
2021/07/09 02:57:31;;;;;;;1.00;1.00;;;16.70;86.40;;;;;;5085901;28;20064;-63
2021/07/09 02:59:57;;;;;;;1.75;1.00;;;16.70;86.40;;;;;;5087809;27;20075;-62
2021/07/09 03:02:23;;;;;;;2.85;0.90;;;16.70;86.30;;;;;;5087437;27;20645;-62
2021/07/09 03:04:48;;;;;;;3.60;0.80;;;16.60;86.30;;;;;;5082845;27;20032;-62
2021/07/09 03:07:14;;;;;;;1.27;0.80;;;16.60;86.30;;;;;;5085870;28;20414;-62
2021/07/09 03:09:40;;;;;;;1.20;0.70;;;16.60;86.20;;;;;;5081842;27;20032;-62
2021/07/09 03:12:06;;;;;;;1.02;0.80;;;16.60;86.20;;;;;;5079911;28;20046;-62
2021/07/09 03:14:31;;;;;;;0.93;0.70;;;16.60;86.20;;;;;;5082143;27;20035;-63
2021/07/09 03:16:57;;;;;;;0.80;0.70;;;16.60;86.30;;;;;;5083630;27;20039;-62
2021/07/09 03:19:23;;;;;;;1.38;0.80;;;16.60;87.10;;;;;;5079568;28;20059;-63
2021/07/09 03:21:49;;;;;;;1.27;0.82;;;16.60;86.20;;;;;;5082482;27;20024;-62
2021/07/09 03:24:14;;;;;;;0.82;0.82;;;16.60;86.10;;;;;;5077581;28;20032;-62
2021/07/09 03:26:40;;;;;;;0.90;0.90;;;16.60;86.10;;;;;;5083640;27;20709;-62
2021/07/09 03:29:05;;;;;;;1.00;0.90;;;16.60;86.90;;;;;;5078944;27;20038;-62
2021/07/09 03:31:32;;;;;;;0.75;0.75;;;16.60;86.00;;;;;;5078599;27;20439;-62
2021/07/09 03:33:59;;;;;;;1.00;0.90;;;16.60;86.00;;;;;;5079555;27;20410;-62
2021/07/09 03:36:25;;;;;;;0.90;0.90;;;16.60;86.10;;;;;;5080830;27;20092;-62
2021/07/09 03:38:55;;;;;;;0.85;0.75;;;16.60;86.00;;;;;;5076482;28;20028;-62
2021/07/09 03:41:22;;;;;;;0.70;0.70;;;16.50;85.90;;;;;;5076280;27;20598;-62
2021/07/09 03:43:48;;;;;;;0.77;0.60;;;16.50;85.90;;;;;;5085963;28;20035;-62
2021/07/09 03:46:13;;;;;;;0.77;0.70;;;16.50;86.00;;;;;;5084640;27;20032;-62
2021/07/09 03:48:39;;;;;;;0.60;0.60;;;16.50;86.00;;;;;;5078507;27;20457;-62
2021/07/09 03:51:06;;;;;;;0.80;0.40;;;16.50;86.10;;;;;;5079928;28;20036;-62
2021/07/09 03:53:31;;;;;;;0.60;0.52;;;16.50;86.10;;;;;;5084363;27;20096;-62
2021/07/09 03:55:57;;;;;;;0.60;0.60;;;16.50;86.10;;;;;;5100139;27;20031;-63
2021/07/09 03:58:23;;;;;;;0.95;0.95;;;16.50;86.00;;;;;;5087591;27;20059;-62
2021/07/09 04:00:48;;;;;;;2.80;0.80;;;16.50;85.90;;;;;;5083609;27;20054;-62
2021/07/09 04:03:14;;;;;;;1.10;1.00;;;16.50;85.90;;;;;;5042600;28;1092072;-62
2021/07/09 04:05:40;;;;;;;0.85;0.85;;;16.50;85.90;;;;;;5087360;27;20760;-62
2021/07/09 04:08:06;;;;;;;1.10;1.10;;;16.40;85.90;;;;;;5081046;28;20048;-62
2021/07/09 04:10:31;;;;;;;1.25;1.10;;;16.40;86.00;;;;;;5084268;27;20036;-62
2021/07/09 04:12:57;;;;;;;1.10;1.00;;;16.40;86.00;;;;;;5083537;28;20054;-63
2021/07/09 04:15:22;;;;;;;1.05;0.95;;;16.40;86.00;;;;;;5079908;28;20070;-62
2021/07/09 04:17:49;;;;;;;1.33;1.10;;;16.40;86.00;;;;;;5083611;27;20039;-62
2021/07/09 04:20:15;;;;;;;1.10;1.00;;;16.40;86.20;;;;;;5082465;28;20123;-62
2021/07/09 04:22:40;;;;;;;1.30;1.10;;;16.40;86.20;;;;;;5084098;27;20463;-62
2021/07/09 04:25:09;;;;;;;1.10;1.10;;;16.40;86.20;;;;;;5084221;28;20041;-62
2021/07/09 04:27:36;;;;;;;1.63;1.10;;;16.40;86.10;;;;;;5088333;27;20024;-62
2021/07/09 04:30:03;;;;;;;6.35;5.75;;;16.40;86.20;;;;;;5081660;27;20031;-63
2021/07/09 04:32:28;;;;;;;10.50;9.48;;;16.30;86.20;;;;;;5081595;27;20036;-63
2021/07/09 04:34:54;;;;;;;3.40;3.10;;;16.40;86.40;;;;;;5083814;27;20523;-62
2021/07/09 04:37:20;;;;;;;2.17;2.08;;;16.30;86.40;;;;;;5085469;28;20024;-63
2021/07/09 04:39:45;;;;;;;1.90;1.80;;;16.30;86.40;;;;;;5084976;28;20038;-63
2021/07/09 04:42:12;;;;;;;1.98;1.80;;;16.30;86.50;;;;;;5084946;27;20495;-65
2021/07/09 04:44:37;;;;;;;2.17;1.90;;;16.30;87.30;;;;;;5081390;27;20032;-62
2021/07/09 04:47:04;;;;;;;1.65;1.45;;;16.30;86.50;;;;;;5082109;28;20101;-63
2021/07/09 04:49:29;;;;;;;1.67;1.30;;;16.30;86.50;;;;;;5082256;27;20507;-63
2021/07/09 04:51:55;;;;;;;2.10;2.00;;;16.30;86.60;;;;;;5079783;28;20046;-63
2021/07/09 04:54:21;;;;;;;2.03;1.90;;;16.30;86.60;;;;;;5080449;27;20563;-63
2021/07/09 04:56:47;;;;;;;2.38;1.50;;;16.30;86.60;;;;;;5076319;27;20035;-63
2021/07/09 04:59:13;;;;;;;2.15;1.60;;;16.30;86.60;;;;;;5073028;28;20093;-60
2021/07/09 05:01:38;;;;;;;1.65;1.45;;;16.40;86.60;;;;;;5077976;27;20032;-63
2021/07/09 05:04:06;;;;;;;2.22;2.00;;;16.40;86.60;;;;;;5082443;28;20578;-63
2021/07/09 05:06:32;;;;;;;2.35;1.95;;;16.40;86.60;;;;;;5084031;27;20039;-64
2021/07/09 05:08:58;;;;;;;1.85;1.75;;;16.40;86.60;;;;;;5084833;27;20115;-63
2021/07/09 05:11:23;;;;;;;1.60;1.50;;;16.40;86.40;;;;;;5085381;28;20111;-63
2021/07/09 05:13:49;;;;;;;3.40;2.30;;;16.40;86.30;;;;;;5083603;27;20047;-63
2021/07/09 05:16:15;;;;;;;4.28;3.00;;;16.40;86.20;;;;;;5083526;28;20050;-63
2021/07/09 05:18:40;;;;;;;2.70;2.50;;;16.40;86.20;;;;;;5082559;27;20032;-63
2021/07/09 05:21:06;;;;;;;6.25;4.15;;;16.40;86.20;;;;;;5084615;27;20564;-63
2021/07/09 05:23:32;;;;;;;4.70;3.22;;;16.40;86.20;;;;;;5085721;28;20107;-63
2021/07/09 05:25:57;;;;;;;3.13;2.50;;;16.40;86.10;;;;;;5086944;27;20078;-64
2021/07/09 05:28:23;;;;;;;5.00;4.10;;;16.40;86.10;;;;;;5085959;27;20032;-64
2021/07/09 05:30:48;;;;;;;2.08;1.98;;;16.40;86.00;;;;;;5085879;28;20061;-63
2021/07/09 05:33:18;;;;;;;2.40;1.98;;;16.40;86.00;;;;;;5085303;27;20039;-62
2021/07/09 05:35:44;;;;;;;3.85;2.72;;;16.40;85.90;;;;;;5087733;28;20051;-63
2021/07/09 05:38:10;;;;;;;2.58;2.40;;;16.40;86.70;;;;;;5087524;27;20040;-64
2021/07/09 05:40:36;;;;;;;2.25;2.05;;;16.40;85.90;;;;;;5086119;27;20093;-64
2021/07/09 05:43:02;;;;;;;2.40;2.20;;;16.40;86.00;;;;;;5084423;28;20048;-63
2021/07/09 05:45:29;;;;;;;2.50;2.30;;;16.40;86.00;;;;;;5085010;27;20503;-63
2021/07/09 05:47:54;;;;;;;2.70;2.47;;;16.40;86.00;;;;;;5086422;28;20032;-64
2021/07/09 05:50:20;;;;;;;2.40;2.20;;;16.40;85.90;;;;;;5085731;27;20039;-64
2021/07/09 05:52:48;;;;;;;2.40;2.20;;;16.40;86.00;;;;;;5086006;27;20049;-64
2021/07/09 05:55:14;;;;;;;2.20;2.08;;;16.40;86.00;;;;;;5086067;28;20518;-64
2021/07/09 05:57:41;;;;;;;2.38;2.28;;;16.40;86.00;;;;;;5086419;27;20037;-64
2021/07/09 06:00:08;;;;;;;2.47;2.20;;;16.40;86.10;;;;;;5085319;28;20055;-64
2021/07/09 06:02:34;;;;;;;4.22;3.58;;;16.50;86.00;;;;;;5101132;27;20039;-63
2021/07/09 06:04:59;;;;;;;5.10;4.60;;;16.40;85.90;;;;;;5084131;28;20024;-64
2021/07/09 06:07:25;;;;;;;4.32;3.78;;;16.50;86.00;;;;;;5086311;28;20459;-62
2021/07/09 06:09:50;;;;;;;4.38;3.75;;;16.50;86.10;;;;;;5084708;27;20074;-64
2021/07/09 06:12:16;;;;;;;4.25;2.25;;;16.50;86.00;;;;;;5083814;27;20040;-64
2021/07/09 06:14:42;;;;;;;3.53;3.10;;;16.50;86.00;;;;;;5083729;27;20398;-63
2021/07/09 06:17:07;;;;;;;2.25;2.15;;;16.50;85.90;;;;;;5085280;27;20082;-64
2021/07/09 06:19:33;;;;;;;2.55;2.25;;;16.50;85.90;;;;;;5086374;28;20391;-64
2021/07/09 06:21:59;;;;;;;2.88;2.45;;;16.60;85.90;;;;;;5086046;27;20063;-64
2021/07/09 06:24:25;;;;;;;2.42;2.13;;;16.60;85.90;;;;;;5085282;27;20547;-64
2021/07/09 06:26:50;;;;;;;2.47;2.28;;;16.60;85.90;;;;;;5079030;28;20044;-64
2021/07/09 06:29:16;;;;;;;2.30;2.00;;;16.60;86.00;;;;;;5083913;27;20069;-64
2021/07/09 06:31:42;;;;;;;2.58;1.80;;;16.60;86.70;;;;;;5080138;28;20032;-64
2021/07/09 06:34:07;;;;;;;2.38;2.10;;;16.60;85.80;;;;;;5083937;27;20411;-62
2021/07/09 06:36:33;;;;;;;2.30;2.10;;;16.60;85.80;;;;;;5080485;27;20040;-64
2021/07/09 06:38:59;;;;;;;2.03;1.80;;;16.60;85.90;;;;;;5086161;28;20028;-63
2021/07/09 06:41:25;;;;;;;2.17;1.98;;;16.60;85.90;;;;;;5085302;27;20044;-64
2021/07/09 06:43:52;;;;;;;1.80;1.70;;;16.70;85.90;;;;;;5083020;28;20573;-63
2021/07/09 06:46:18;;;;;;;3.05;2.20;;;16.70;85.90;;;;;;5082320;28;20625;-64
2021/07/09 06:48:44;;;;;;;2.33;2.13;;;16.70;86.00;;;;;;5085150;27;20032;-64
2021/07/09 06:51:10;;;;;;;2.67;2.15;;;16.70;86.10;;;;;;5085889;28;20043;-63
2021/07/09 06:53:35;;;;;;;2.20;2.00;;;16.70;86.10;;;;;;5085809;27;20043;-63
2021/07/09 06:56:01;;;;;;;2.10;1.95;;;16.80;86.20;;;;;;5086749;28;20583;-63
2021/07/09 06:58:28;;;;;;;2.55;2.30;;;16.80;86.20;;;;;;5088861;27;20046;-63
2021/07/09 07:00:53;;;;;;;3.00;1.95;;;16.80;86.90;;;;;;5089416;27;20503;-64
2021/07/09 07:03:19;;;;;;;2.33;2.20;;;16.90;86.20;;;;;;5082824;28;20044;-63
2021/07/09 07:05:44;;;;;;;2.28;2.05;;;16.90;86.40;;;;;;5089222;27;20137;-64
2021/07/09 07:08:14;;;;;;;2.47;2.28;;;16.90;86.50;;;;;;5089950;28;20503;-63
2021/07/09 07:10:40;;;;;;;2.30;2.10;;;17.00;86.50;;;;;;5088744;27;20047;-64
2021/07/09 07:13:05;;;;;;;2.42;2.22;;;17.00;86.30;;;;;;5088046;27;20036;-63
2021/07/09 07:15:31;;;;;;;2.40;2.20;;;17.10;85.90;;;;;;5090139;28;20028;-64
2021/07/09 07:17:56;;;;;;;2.53;2.22;;;17.10;85.90;;;;;;5088898;27;20131;-64
2021/07/09 07:20:22;;;;;;;2.58;2.33;;;17.10;85.70;;;;;;5083975;27;20038;-64
2021/07/09 07:22:47;;;;;;;2.78;2.30;;;17.20;86.40;;;;;;5089059;28;20052;-63
2021/07/09 07:25:13;;;;;;;2.50;2.22;;;17.20;85.60;;;;;;5084969;27;20115;-64
2021/07/09 07:27:39;;;;;;;2.78;2.50;;;17.20;85.50;;;;;;5088363;28;20058;-64
2021/07/09 07:30:06;;;;;;;2.47;2.22;;;17.30;85.50;;;;;;5089152;27;20146;-63
2021/07/09 07:32:31;;;;;;;2.85;2.58;;;17.30;85.70;;;;;;5080063;27;20463;-63
2021/07/09 07:34:57;;;;;;;3.38;2.28;;;17.30;85.50;;;;;;5085133;28;20052;-64
2021/07/09 07:37:23;;;;;;;2.30;2.20;;;17.40;85.90;;;;;;5087357;28;20036;-63
2021/07/09 07:39:49;;;;;;;2.40;2.20;;;17.40;85.90;;;;;;5086195;27;20028;-64
2021/07/09 07:42:15;;;;;;;4.05;2.42;;;17.50;85.80;;;;;;5087303;27;20376;-64
2021/07/09 07:44:40;;;;;;;3.55;2.20;;;17.60;86.70;;;;;;5087670;27;20039;-64
2021/07/09 07:47:06;;;;;;;2.47;2.28;;;17.60;86.00;;;;;;5088376;27;20028;-64
2021/07/09 07:49:32;;;;;;;2.55;2.13;;;17.70;85.70;;;;;;5088062;27;20040;-64
2021/07/09 07:51:57;;;;;;;2.25;2.05;;;17.80;85.30;;;;;;5088552;28;20119;-64
2021/07/09 07:54:23;;;;;;;3.08;2.10;;;17.80;85.00;;;;;;5086557;27;20036;-64
2021/07/09 07:56:49;;;;;;;2.50;2.30;;;17.90;84.60;;;;;;5086806;27;20043;-64
2021/07/09 07:59:15;;;;;;;2.33;2.17;;;17.90;84.10;;;;;;5087400;28;20024;-65
2021/07/09 08:01:40;;;;;;;2.22;2.03;;;17.90;83.70;;;;;;5088108;27;20503;-64
2021/07/09 08:04:06;;;;;;;2.25;1.90;;;17.90;83.60;;;;;;5086695;28;20530;-64
2021/07/09 08:06:32;;;;;;;2.58;1.98;;;18.00;83.50;;;;;;5085189;28;20427;-65
2021/07/09 08:08:58;;;;;;;2.92;2.17;;;18.00;83.60;;;;;;5087627;27;20029;-64
2021/07/09 08:11:24;;;;;;;3.35;2.03;;;18.00;83.40;;;;;;5087164;28;20122;-63
2021/07/09 08:13:49;;;;;;;2.70;2.15;;;18.00;83.30;;;;;;5086871;27;20150;-64
2021/07/09 08:16:16;;;;;;;2.10;2.00;;;18.10;83.20;;;;;;5088120;28;20032;-64
2021/07/09 08:18:42;;;;;;;2.58;2.10;;;18.10;83.80;;;;;;5086459;28;20062;-64
2021/07/09 08:21:08;;;;;;;2.25;2.08;;;18.10;82.90;;;;;;5095526;27;20056;-64
2021/07/09 08:23:34;;;;;;;2.47;2.28;;;18.10;82.60;;;;;;5086760;28;20032;-64
2021/07/09 08:25:59;;;;;;;2.50;2.30;;;18.10;82.70;;;;;;5083451;27;20572;-64
2021/07/09 08:28:26;;;;;;;3.38;2.00;;;18.20;82.70;;;;;;5082641;27;20043;-64
2021/07/09 08:30:51;;;;;;;2.50;2.30;;;18.10;82.40;;;;;;5085004;28;20119;-64
2021/07/09 08:33:17;;;;;;;2.22;2.03;;;18.20;82.00;;;;;;5083829;27;20531;-64
2021/07/09 08:35:43;;;;;;;2.78;2.58;;;18.20;81.50;;;;;;5083844;28;20043;-63
2021/07/09 08:38:09;;;;;;;2.38;1.85;;;18.20;81.30;;;;;;5087654;27;20032;-65
2021/07/09 08:40:36;;;;;;;2.60;2.40;;;18.20;81.20;;;;;;5087281;27;20425;-64
2021/07/09 08:43:01;;;;;;;2.33;1.95;;;18.20;81.50;;;;;;5087847;28;20040;-64
2021/07/09 08:45:27;;;;;;;3.38;2.00;;;18.20;81.30;;;;;;5086838;27;20046;-64
2021/07/09 08:47:54;;;;;;;2.50;2.22;;;18.30;81.00;;;;;;5087820;28;20040;-64
2021/07/09 08:50:20;;;;;;;2.30;2.20;;;18.30;81.00;;;;;;5086556;27;20032;-64
2021/07/09 08:52:46;;;;;;;2.17;2.08;;;18.30;81.90;;;;;;5084193;27;20525;-64
2021/07/09 08:55:12;;;;;;;2.83;2.53;;;18.30;81.30;;;;;;5086013;28;20039;-64
2021/07/09 08:57:42;;;;;;;2.40;2.20;;;18.30;80.60;;;;;;5087599;28;20032;-64
2021/07/09 09:00:31;;;;;;;2.42;2.22;;;18.40;80.80;;;;;;5085580;28;20047;-64
2021/07/09 09:02:57;;;;;;;2.60;2.40;;;18.40;80.10;;;;;;5079405;28;20039;-64
2021/07/09 09:05:25;;;;;;;2.53;2.33;;;18.40;80.50;;;;;;5086949;27;20032;-65
2021/07/09 09:07:58;;;;;;;2.60;2.40;;;18.50;80.80;;;;;;5086600;28;20032;-64
2021/07/09 09:10:38;;;;;;;2.13;1.90;;;18.50;80.50;;;;;;5085081;27;20056;-64
2021/07/09 09:13:08;;;;;;;3.83;2.40;;;18.60;81.00;;;;;;5086164;27;20043;-64
2021/07/09 09:15:35;;;;;;;2.15;2.03;;;18.60;81.30;;;;;;5086931;28;20058;-64
2021/07/09 09:18:02;;;;;;;2.30;2.10;;;18.70;81.00;;;;;;5086699;27;20525;-64
2021/07/09 09:20:29;;;;;;;2.40;1.90;;;18.80;80.60;;;;;;5086191;27;20063;-65
2021/07/09 09:22:57;;;;;;;2.60;2.40;;;18.90;80.60;;;;;;5086892;28;20119;-65
2021/07/09 09:25:27;;;;;;;2.00;1.90;;;18.90;80.50;;;;;;5086419;27;20116;-64
2021/07/09 09:28:27;;;;;;;4.43;2.15;;;19.00;80.40;;;;;;5086752;28;20036;-64
2021/07/09 09:30:55;;;;;;;2.28;2.08;;;19.00;80.40;;;;;;5097766;27;20050;-65
2021/07/09 09:33:22;;;;;;;2.10;2.00;;;19.10;80.80;;;;;;5085026;27;20514;-65
2021/07/09 09:35:55;;;;;;;3.38;2.08;;;19.20;80.50;;;;;;5086602;28;20119;-65
2021/07/09 09:38:27;;;;;;;2.40;2.20;;;19.30;80.00;;;;;;5082852;27;20032;-64
2021/07/09 09:40:54;;;;;;;2.20;2.00;;;19.30;79.20;;;;;;5085991;27;20040;-65
2021/07/09 09:43:23;;;;;;;1.85;1.75;;;19.40;79.40;;;;;;5086124;28;20036;-65
2021/07/09 09:46:01;;;;;;;2.08;1.98;;;19.40;78.50;;;;;;5086791;27;20036;-64
2021/07/09 09:48:37;;;;;;;2.80;1.98;;;19.50;77.30;;;;;;5100183;27;20051;-64
2021/07/09 09:51:25;;;;;;;2.10;1.90;;;19.50;77.20;;;;;;5086604;28;20039;-65
2021/07/09 09:53:53;;;;;;;2.92;2.13;;;19.50;78.40;;;;;;5084110;28;20470;-64
2021/07/09 09:56:39;;;;;;;2.88;2.30;;;19.50;78.10;;;;;;5084826;28;20115;-64
2021/07/09 09:59:16;;;;;;;2.60;2.40;;;19.60;78.60;;;;;;5081920;28;20127;-64
2021/07/09 10:01:48;;;;;;;2.45;2.25;;;19.60;78.70;;;;;;5084724;27;20059;-64
2021/07/09 10:04:14;;;;;;;2.70;2.33;;;19.70;78.90;;;;;;5082620;28;20043;-64
2021/07/09 10:06:42;;;;;;;1.92;1.83;;;19.90;78.70;;;;;;5078416;28;20391;-64
2021/07/09 10:09:08;;;;;;;2.47;2.17;;;20.00;78.70;;;;;;5086542;27;20032;-63
2021/07/09 10:11:35;;;;;;;2.55;1.80;;;20.10;78.20;;;;;;5084504;27;20228;-64
2021/07/09 10:14:01;;;;;;;2.30;1.98;;;20.20;75.00;;;;;;5085718;27;20040;-64
2021/07/09 10:16:26;;;;;;;4.97;1.88;;;20.30;74.30;;;;;;5086919;27;20051;-64
2021/07/09 10:18:55;;;;;;;4.00;1.90;;;20.50;74.60;;;;;;5079964;28;20044;-64
2021/07/09 10:21:21;;;;;;;2.08;1.90;;;20.50;74.00;;;;;;5086433;27;20396;-63
2021/07/09 10:23:47;;;;;;;4.65;2.70;;;20.50;74.40;;;;;;5079006;28;20066;-63
2021/07/09 10:26:18;;;;;;;2.92;2.40;;;20.50;74.80;;;;;;5086270;27;20032;-63
2021/07/09 10:29:20;;;;;;;3.17;2.70;;;20.50;75.30;;;;;;5095075;27;20032;-63
2021/07/09 10:31:47;;;;;;;2.35;2.15;;;20.50;74.60;;;;;;5089794;28;20043;-63
2021/07/09 10:34:36;;;;;;;4.40;2.35;;;20.40;75.60;;;;;;5089703;27;20042;-64
2021/07/09 10:37:17;;;;;;;2.45;2.25;;;20.40;76.60;;;;;;5086055;28;20028;-63
2021/07/09 10:39:51;;;;;;;2.35;2.25;;;20.40;77.30;;;;;;5103064;27;20093;-63
2021/07/09 10:42:52;;;;;;;2.38;2.28;;;20.40;77.70;;;;;;5088371;27;20032;-62
2021/07/09 10:45:28;;;;;;;2.38;2.17;;;20.40;77.70;;;;;;5074991;28;20059;-64
2021/07/09 10:48:13;;;;;;;2.60;2.40;;;20.40;77.70;;;;;;5089465;28;20028;-64
2021/07/09 10:50:49;;;;;;;3.53;2.10;;;20.50;76.50;;;;;;5089243;27;20484;-64
2021/07/09 10:53:14;;;;;;;2.55;2.22;;;20.50;75.80;;;;;;5088023;27;20076;-64
2021/07/09 10:55:48;;;;;;;2.63;2.00;;;20.50;75.60;;;;;;5089478;28;20566;-64
2021/07/09 10:58:22;;;;;;;2.30;2.05;;;20.60;75.80;;;;;;5086128;27;20696;-64
2021/07/09 11:00:49;;;;;;;2.17;2.05;;;20.60;74.50;;;;;;5081689;28;20077;-64
2021/07/09 11:03:42;;;;;;;2.47;2.28;;;20.70;75.80;;;;;;5088311;28;20062;-64
2021/07/09 11:06:10;;;;;;;2.55;2.35;;;20.80;75.10;;;;;;5088339;27;20078;-64
2021/07/09 11:08:50;;;;;;;2.88;1.92;;;20.90;75.30;;;;;;5089337;27;20067;-64
2021/07/09 11:11:36;;;;;;;2.03;1.83;;;21.00;73.90;;;;;;5088748;28;20070;-64
2021/07/09 11:14:08;;;;;;;2.22;1.75;;;21.10;72.60;;;;;;5087481;27;20035;-64
2021/07/09 11:16:38;;;;;;;2.20;1.80;;;21.20;73.70;;;;;;5096815;27;20523;-65
2021/07/09 11:19:08;;;;;;;2.95;1.92;;;21.30;73.20;;;;;;5089439;28;20692;-64
2021/07/09 11:21:36;;;;;;;2.10;1.80;;;21.40;71.30;;;;;;5104409;27;20033;-64
2021/07/09 11:24:06;;;;;;;2.50;2.30;;;21.40;71.60;;;;;;5088414;28;20362;-64
2021/07/09 11:26:34;;;;;;;4.13;2.40;;;21.50;70.70;;;;;;5089233;27;20115;-64
2021/07/09 11:29:15;;;;;;;2.03;1.80;;;21.50;69.70;;;;;;5089484;27;20510;-64
2021/07/09 11:31:41;;;;;;;2.08;1.98;;;21.50;70.90;;;;;;5089554;28;20236;-65
2021/07/09 11:34:10;;;;;;;2.22;1.80;;;21.60;71.20;;;;;;5101892;27;20574;-64
2021/07/09 11:36:53;;;;;;;2.38;1.63;;;21.50;70.90;;;;;;5087655;27;20141;-64
2021/07/09 11:39:31;;;;;;;2.40;1.58;;;21.60;71.90;;;;;;5088793;28;20079;-65
2021/07/09 11:41:57;;;;;;;2.10;2.00;;;21.70;72.00;;;;;;5088539;27;20494;-64
2021/07/09 11:44:41;;;;;;;2.63;1.80;;;21.80;71.50;;;;;;5082714;27;20035;-65
2021/07/09 11:47:12;;;;;;;1.60;1.50;;;21.80;69.70;;;;;;5088248;28;20048;-65
2021/07/09 11:49:40;;;;;;;2.00;1.77;;;21.80;69.70;;;;;;5088960;27;20089;-64
2021/07/09 11:52:09;;;;;;;1.70;1.60;;;21.80;70.40;;;;;;5087445;28;20491;-64
2021/07/09 11:54:45;;;;;;;1.77;1.67;;;21.90;70.90;;;;;;5087823;27;20089;-65
2021/07/09 11:57:14;;;;;;;6.63;1.70;;;21.90;71.60;;;;;;5088164;27;20048;-65
2021/07/09 11:59:41;;;;;;;1.73;1.60;;;21.90;71.70;;;;;;5086925;28;20035;-64
2021/07/09 12:02:21;;;;;;;1.90;1.70;;;21.90;71.90;;;;;;5087896;27;20044;-64
2021/07/09 12:04:57;;;;;;;1.30;1.20;;;22.00;71.60;;;;;;5086416;28;20036;-64
2021/07/09 12:07:34;;;;;;;1.50;1.40;;;22.10;69.30;;;;;;5088134;27;20040;-64
2021/07/09 12:10:12;;;;;;;1.30;1.20;;;22.10;68.80;;;;;;5087987;27;20028;-64
2021/07/09 12:12:58;;;;;;;1.95;1.50;;;22.00;69.30;;;;;;5084852;27;20044;-64
2021/07/09 12:15:25;;;;;;;1.63;1.52;;;22.00;70.00;;;;;;5088101;28;20102;-64
2021/07/09 12:17:53;;;;;;;3.40;1.50;;;22.00;70.00;;;;;;5079458;28;20077;-64
2021/07/09 12:20:26;;;;;;;1.70;1.60;;;22.00;70.10;;;;;;5085820;28;20059;-65
2021/07/09 12:22:57;;;;;;;1.50;1.40;;;22.00;70.60;;;;;;5085721;28;20024;-65
2021/07/09 12:25:25;;;;;;;2.00;1.40;;;22.10;70.10;;;;;;5086988;27;20105;-64
2021/07/09 12:27:54;;;;;;;1.75;1.40;;;22.10;69.80;;;;;;5102592;27;20040;-65
2021/07/09 12:30:22;;;;;;;1.70;1.60;;;22.20;69.70;;;;;;5085177;28;20032;-64
2021/07/09 12:32:52;;;;;;;2.22;1.80;;;22.20;70.30;;;;;;5086384;27;20058;-64
2021/07/09 12:35:19;;;;;;;3.15;1.58;;;22.30;69.60;;;;;;5083183;27;20131;-63
2021/07/09 12:37:59;;;;;;;2.42;1.52;;;22.40;69.10;;;;;;5082729;27;20420;-64
2021/07/09 12:40:45;;;;;;;1.90;1.70;;;22.40;67.60;;;;;;5087418;27;20426;-65
2021/07/09 12:43:23;;;;;;;1.95;1.80;;;22.50;66.00;;;;;;5087368;28;20032;-64
2021/07/09 12:46:05;;;;;;;1.40;1.35;;;22.50;66.70;;;;;;5088012;27;20036;-65
2021/07/09 12:48:41;;;;;;;2.40;1.50;;;22.50;66.50;;;;;;5103099;27;20059;-65
2021/07/09 12:51:43;;;;;;;1.73;1.63;;;22.60;66.60;;;;;;5087607;28;20210;-64